Time;durP1;ratioP1;P1;durP2;ratioP2;P2;SDS_P1;SDS_P2;PMS_P1;PMS_P2;Temp;Humidity;BMP_temperature;BMP_pressure;BME280_temperature;BME280_humidity;BME280_pressure;Samples;Min_cycle;Max_cycle;Signal;HPM_P1;HPM_P2
2023/07/01 00:00:46;;;;;;;;;;;;;;;;;;5050393;28;4990;-63
2023/07/01 00:03:13;;;;;;;;;;;;;;;;;;5050266;28;5247;-63
2023/07/01 00:05:40;;;;;;;;;;;;;;;;;;5065728;28;5281;-62
2023/07/01 00:08:05;;;;;;;;;;;;;;;;;;5049231;28;5192;-63
2023/07/01 00:10:30;;;;;;;;;;;;;;;;;;5050937;28;1089;-63
2023/07/01 00:12:56;;;;;;;;;;;;;;;;;;5050387;28;5044;-63
2023/07/01 00:15:21;;;;;;;;;;;;;;;;;;5049110;28;4993;-65
2023/07/01 00:17:46;;;;;;;;;;;;;;;;;;5050166;28;4458;-65
2023/07/01 00:20:11;;;;;;;;;;;;;;;;;;5050823;28;4984;-64
2023/07/01 00:22:37;;;;;;;;;;;;;;;;;;5049597;28;1281;-64
2023/07/01 00:25:02;;;;;;;;;;;;;;;;;;5050434;28;4646;-64
2023/07/01 00:27:28;;;;;;;;;;;;;;;;;;5048533;28;5029;-63
2023/07/01 00:29:53;;;;;;;;;;;;;;;;;;5049718;28;4520;-64
2023/07/01 00:32:18;;;;;;;;;;;;;;;;;;5048780;28;5535;-64
2023/07/01 00:34:44;;;;;;;;;;;;;;;;;;5050057;28;4974;-64
2023/07/01 00:37:10;;;;;;;;;;;;;;;;;;5064678;28;4461;-64
2023/07/01 00:39:35;;;;;;;;;;;;;;;;;;5049661;28;4972;-64
2023/07/01 00:42:00;;;;;;;;;;;;;;;;;;5049952;28;5023;-63
2023/07/01 00:44:25;;;;;;;;;;;;;;;;;;5049861;28;4843;-64
2023/07/01 00:46:51;;;;;;;;;;;;;;;;;;5046219;28;1198;-64
2023/07/01 00:49:16;;;;;;;;;;;;;;;;;;5049163;28;5101;-63
2023/07/01 00:51:41;;;;;;;;;;;;;;;;;;5043890;28;4959;-64
2023/07/01 00:54:06;;;;;;;;;;;;;;;;;;5048601;28;4673;-64
2023/07/01 00:56:32;;;;;;;;;;;;;;;;;;5068340;28;5252;-64
2023/07/01 00:58:57;;;;;;;;;;;;;;;;;;5048900;28;1331;-64
2023/07/01 01:01:27;;;;;;;;;;;;;;;;;;5048864;28;4963;-64
2023/07/01 01:04:14;;;;;;;;;;;;;;;;;;5061239;28;4478;-64
2023/07/01 01:06:53;;;;;;;;;;;;;;;;;;5040952;28;5081;-63
2023/07/01 01:09:20;;;;;;;;;;;;;;;;;;5064759;28;4439;-64
2023/07/01 01:11:46;;;;;;;;;;;;;;;;;;5065770;28;4455;-64
2023/07/01 01:14:11;;;;;;;;;;;;;;;;;;5031393;28;5063;-63
2023/07/01 01:16:37;;;;;;;;;;;;;;;;;;5049929;28;1117;-64
2023/07/01 01:19:04;;;;;;;;;;;;;;;;;;5046033;28;4583;-64
2023/07/01 01:21:29;;;;;;;;;;;;;;;;;;5063785;28;5061;-63
2023/07/01 01:24:01;;;;;;;;;;;;;;;;;;5064458;28;5121;-63
2023/07/01 01:26:28;;;;;;;;;;;;;;;;;;5032831;28;5112;-64
2023/07/01 01:28:53;;;;;;;;;;;;;;;;;;5063256;28;2518;-63
2023/07/01 01:31:19;;;;;;;;;;;;;;;;;;5048931;28;4410;-63
2023/07/01 01:33:45;;;;;;;;;;;;;;;;;;5047444;28;5010;-63
2023/07/01 01:36:12;;;;;;;;;;;;;;;;;;5048631;28;5181;-63
2023/07/01 01:38:38;;;;;;;;;;;;;;;;;;5031786;28;5063;-64
2023/07/01 01:41:05;;;;;;;;;;;;;;;;;;5050659;28;5100;-63
2023/07/01 01:43:37;;;;;;;;;;;;;;;;;;5064146;28;1856;-64
2023/07/01 01:46:02;;;;;;;;;;;;;;;;;;5045054;28;4881;-64
2023/07/01 01:48:28;;;;;;;;;;;;;;;;;;5031053;28;4991;-64
2023/07/01 01:50:53;;;;;;;;;;;;;;;;;;5064061;28;4694;-64
2023/07/01 01:53:19;;;;;;;;;;;;;;;;;;5030391;28;5061;-64
2023/07/01 01:55:44;;;;;;;;;;;;;;;;;;5048803;28;1249;-65
2023/07/01 01:58:09;;;;;;;;;;;;;;;;;;5063460;28;5009;-63
2023/07/01 02:00:35;;;;;;;;;;;;;;;;;;5059864;28;5070;-63
2023/07/01 02:03:00;;;;;;;;;;;;;;;;;;5048418;28;4956;-63
2023/07/01 02:05:26;;;;;;;;;;;;;;;;;;5048141;28;5518;-64
2023/07/01 02:07:51;;;;;;;;;;;;;;;;;;5048987;28;1201;-64
2023/07/01 02:10:16;;;;;;;;;;;;;;;;;;5046196;28;4995;-64
2023/07/01 02:12:41;;;;;;;;;;;;;;;;;;5048319;28;5003;-64
2023/07/01 02:15:07;;;;;;;;;;;;;;;;;;5038347;28;4478;-64
2023/07/01 02:17:32;;;;;;;;;;;;;;;;;;5047945;28;5264;-64
2023/07/01 02:19:57;;;;;;;;;;;;;;;;;;5042178;28;1121;-64
2023/07/01 02:22:22;;;;;;;;;;;;;;;;;;5054892;28;4782;-64
2023/07/01 02:24:48;;;;;;;;;;;;;;;;;;5048227;28;5124;-63
2023/07/01 02:27:13;;;;;;;;;;;;;;;;;;5045816;28;4509;-63
2023/07/01 02:29:38;;;;;;;;;;;;;;;;;;5038428;28;5001;-63
2023/07/01 02:32:04;;;;;;;;;;;;;;;;;;5042522;28;5154;-64
2023/07/01 02:34:30;;;;;;;;;;;;;;;;;;5047189;28;5052;-63
2023/07/01 02:36:55;;;;;;;;;;;;;;;;;;5062982;28;6089;-63
2023/07/01 02:39:20;;;;;;;;;;;;;;;;;;5047341;28;4462;-64
2023/07/01 02:41:45;;;;;;;;;;;;;;;;;;5047662;28;4426;-64
2023/07/01 02:44:11;;;;;;;;;;;;;;;;;;5062850;28;4995;-65
2023/07/01 02:46:36;;;;;;;;;;;;;;;;;;5063937;28;1132;-64
2023/07/01 02:49:02;;;;;;;;;;;;;;;;;;5047455;28;4953;-63
2023/07/01 02:51:27;;;;;;;;;;;;;;;;;;5051695;28;4829;-64
2023/07/01 02:53:53;;;;;;;;;;;;;;;;;;5047288;28;5087;-64
2023/07/01 02:56:18;;;;;;;;;;;;;;;;;;5045227;28;5103;-63
2023/07/01 02:58:43;;;;;;;;;;;;;;;;;;5046036;28;3241;-64
2023/07/01 03:01:08;;;;;;;;;;;;;;;;;;5046776;28;5097;-64
2023/07/01 03:03:34;;;;;;;;;;;;;;;;;;5046989;28;4481;-64
2023/07/01 03:05:59;;;;;;;;;;;;;;;;;;5046250;28;4917;-64
2023/07/01 03:08:24;;;;;;;;;;;;;;;;;;5047874;28;5106;-64
2023/07/01 03:10:49;;;;;;;;;;;;;;;;;;5041628;28;3234;-63
2023/07/01 03:13:16;;;;;;;;;;;;;;;;;;5045976;28;5018;-64
2023/07/01 03:15:41;;;;;;;;;;;;;;;;;;5047457;28;5018;-63
2023/07/01 03:18:07;;;;;;;;;;;;;;;;;;5046627;28;5048;-63
2023/07/01 03:20:32;;;;;;;;;;;;;;;;;;5046974;28;5052;-63
2023/07/01 03:22:57;;;;;;;;;;;;;;;;;;5065571;28;3242;-63
2023/07/01 03:25:25;;;;;;;;;;;;;;;;;;5047307;28;4587;-63
2023/07/01 03:27:50;;;;;;;;;;;;;;;;;;5064285;28;4708;-64
2023/07/01 03:30:16;;;;;;;;;;;;;;;;;;5050964;28;5075;-63
2023/07/01 03:32:41;;;;;;;;;;;;;;;;;;5049672;28;4681;-63
2023/07/01 03:35:07;;;;;;;;;;;;;;;;;;5050178;28;5231;-63
2023/07/01 03:37:32;;;;;;;;;;;;;;;;;;5065920;28;3245;-63
2023/07/01 03:39:57;;;;;;;;;;;;;;;;;;5045467;28;5018;-63
2023/07/01 03:42:23;;;;;;;;;;;;;;;;;;5048089;28;5038;-65
2023/07/01 03:44:48;;;;;;;;;;;;;;;;;;5066332;28;5138;-63
2023/07/01 03:47:13;;;;;;;;;;;;;;;;;;5050506;28;5322;-63
2023/07/01 03:49:39;;;;;;;;;;;;;;;;;;5051620;28;3383;-63
2023/07/01 03:52:04;;;;;;;;;;;;;;;;;;5049830;28;4431;-64
2023/07/01 03:54:29;;;;;;;;;;;;;;;;;;5044199;28;4596;-64
2023/07/01 03:56:55;;;;;;;;;;;;;;;;;;5050123;28;5352;-63
2023/07/01 03:59:20;;;;;;;;;;;;;;;;;;5050513;28;5138;-64
2023/07/01 04:01:45;;;;;;;;;;;;;;;;;;5050892;28;3005;-64
2023/07/01 04:04:10;;;;;;;;;;;;;;;;;;5050882;28;5031;-63
2023/07/01 04:06:35;;;;;;;;;;;;;;;;;;5048785;28;5505;-63
2023/07/01 04:09:01;;;;;;;;;;;;;;;;;;5042127;28;5081;-63
2023/07/01 04:11:26;;;;;;;;;;;;;;;;;;5050627;28;4451;-63
2023/07/01 04:13:51;;;;;;;;;;;;;;;;;;5050789;28;3025;-63
2023/07/01 04:16:17;;;;;;;;;;;;;;;;;;5050334;28;4977;-64
2023/07/01 04:18:42;;;;;;;;;;;;;;;;;;5050570;28;4560;-63
2023/07/01 04:21:08;;;;;;;;;;;;;;;;;;5050053;28;4409;-64
2023/07/01 04:23:34;;;;;;;;;;;;;;;;;;5065158;28;4925;-63
2023/07/01 04:25:59;;;;;;;;;;;;;;;;;;5050725;28;1115;-63
2023/07/01 04:28:24;;;;;;;;;;;;;;;;;;5050077;28;5045;-63
2023/07/01 04:30:49;;;;;;;;;;;;;;;;;;5049756;28;4849;-63
2023/07/01 04:33:15;;;;;;;;;;;;;;;;;;5049871;28;4948;-63
2023/07/01 04:35:41;;;;;;;;;;;;;;;;;;5044616;28;5046;-63
2023/07/01 04:38:06;;;;;;;;;;;;;;;;;;5046774;28;5079;-65
2023/07/01 04:40:31;;;;;;;;;;;;;;;;;;5050301;28;1149;-63
2023/07/01 04:42:57;;;;;;;;;;;;;;;;;;5054225;28;4625;-63
2023/07/01 04:45:22;;;;;;;;;;;;;;;;;;5050043;28;5204;-63
2023/07/01 04:47:48;;;;;;;;;;;;;;;;;;5050517;28;5055;-64
2023/07/01 04:50:13;;;;;;;;;;;;;;;;;;5063191;28;5354;-64
2023/07/01 04:52:38;;;;;;;;;;;;;;;;;;5048880;28;1974;-63
2023/07/01 04:55:04;;;;;;;;;;;;;;;;;;5052034;28;4429;-64
2023/07/01 04:57:29;;;;;;;;;;;;;;;;;;5050377;28;5135;-63
2023/07/01 04:59:54;;;;;;;;;;;;;;;;;;5049423;28;4649;-63
2023/07/01 05:02:20;;;;;;;;;;;;;;;;;;5048982;28;4616;-63
2023/07/01 05:04:45;;;;;;;;;;;;;;;;;;5045769;28;1284;-64
2023/07/01 05:07:10;;;;;;;;;;;;;;;;;;5045316;28;4560;-63
2023/07/01 05:09:36;;;;;;;;;;;;;;;;;;5051290;28;5071;-63
2023/07/01 05:12:01;;;;;;;;;;;;;;;;;;5049127;28;4429;-63
2023/07/01 05:14:27;;;;;;;;;;;;;;;;;;5048744;28;4738;-64
2023/07/01 05:16:52;;;;;;;;;;;;;;;;;;5048086;28;1180;-64
2023/07/01 05:19:17;;;;;;;;;;;;;;;;;;5049076;28;5024;-63
2023/07/01 05:21:49;;;;;;;;;;;;;;;;;;5049097;28;4474;-63
2023/07/01 05:24:14;;;;;;;;;;;;;;;;;;5049063;28;4530;-64
2023/07/01 05:26:40;;;;;;;;;;;;;;;;;;5063157;28;5088;-66
2023/07/01 05:29:05;;;;;;;;;;;;;;;;;;5030871;28;4482;-63
2023/07/01 05:31:30;;;;;;;;;;;;;;;;;;5042716;28;1321;-64
2023/07/01 05:33:55;;;;;;;;;;;;;;;;;;5042743;28;5129;-63
2023/07/01 05:36:21;;;;;;;;;;;;;;;;;;5049021;28;5240;-64
2023/07/01 05:38:46;;;;;;;;;;;;;;;;;;5048389;28;5047;-63
2023/07/01 05:41:11;;;;;;;;;;;;;;;;;;5055080;28;5283;-63
2023/07/01 05:43:36;;;;;;;;;;;;;;;;;;5048047;28;3251;-64
2023/07/01 05:46:02;;;;;;;;;;;;;;;;;;5040257;28;5051;-64
2023/07/01 05:48:27;;;;;;;;;;;;;;;;;;5048511;28;4997;-63
2023/07/01 05:50:52;;;;;;;;;;;;;;;;;;5048879;28;4861;-63
2023/07/01 05:53:17;;;;;;;;;;;;;;;;;;5048428;28;4982;-63
2023/07/01 05:55:43;;;;;;;;;;;;;;;;;;5049327;28;1153;-63
2023/07/01 05:58:08;;;;;;;;;;;;;;;;;;5048741;28;5477;-64
2023/07/01 06:00:33;;;;;;;;;;;;;;;;;;5029650;28;5051;-64
2023/07/01 06:02:59;;;;;;;;;;;;;;;;;;5048431;28;5019;-63
2023/07/01 06:05:24;;;;;;;;;;;;;;;;;;5048125;28;5718;-63
2023/07/01 06:07:49;;;;;;;;;;;;;;;;;;5048202;28;2103;-63
2023/07/01 06:10:14;;;;;;;;;;;;;;;;;;5048469;28;4967;-64
2023/07/01 06:12:40;;;;;;;;;;;;;;;;;;5047908;28;4444;-64
2023/07/01 06:15:05;;;;;;;;;;;;;;;;;;5039740;28;4828;-64
2023/07/01 06:17:30;;;;;;;;;;;;;;;;;;5044844;28;4876;-64
2023/07/01 06:19:56;;;;;;;;;;;;;;;;;;5048583;28;1148;-63
2023/07/01 06:22:21;;;;;;;;;;;;;;;;;;5029593;28;5411;-64
2023/07/01 06:24:46;;;;;;;;;;;;;;;;;;5048449;28;4505;-63
2023/07/01 06:27:12;;;;;;;;;;;;;;;;;;5042990;28;5025;-63
2023/07/01 06:29:37;;;;;;;;;;;;;;;;;;5033114;28;5134;-66
2023/07/01 06:32:02;;;;;;;;;;;;;;;;;;5047987;28;4477;-64
2023/07/01 06:34:27;;;;;;;;;;;;;;;;;;5048138;28;4939;-64
2023/07/01 06:36:53;;;;;;;;;;;;;;;;;;5047630;28;5048;-64
2023/07/01 06:39:18;;;;;;;;;;;;;;;;;;5047342;28;5160;-64
2023/07/01 06:41:43;;;;;;;;;;;;;;;;;;5045719;28;4996;-63
2023/07/01 06:44:09;;;;;;;;;;;;;;;;;;5046946;28;5096;-64
2023/07/01 06:46:34;;;;;;;;;;;;;;;;;;5048635;28;1353;-64
2023/07/01 06:48:59;;;;;;;;;;;;;;;;;;5051034;28;5075;-63
2023/07/01 06:51:24;;;;;;;;;;;;;;;;;;5047629;28;4441;-64
2023/07/01 06:53:50;;;;;;;;;;;;;;;;;;5047661;28;4566;-63
2023/07/01 06:56:15;;;;;;;;;;;;;;;;;;5038380;28;5079;-64
2023/07/01 06:58:40;;;;;;;;;;;;;;;;;;5066964;28;3223;-64
2023/07/01 07:01:05;;;;;;;;;;;;;;;;;;5050717;28;5072;-63
2023/07/01 07:03:31;;;;;;;;;;;;;;;;;;5052270;28;4629;-63
2023/07/01 07:05:56;;;;;;;;;;;;;;;;;;5051395;28;5576;-63
2023/07/01 07:08:21;;;;;;;;;;;;;;;;;;5051457;28;4492;-63
2023/07/01 07:10:47;;;;;;;;;;;;;;;;;;5044083;28;1168;-63
2023/07/01 07:13:12;;;;;;;;;;;;;;;;;;5043446;28;5047;-63
2023/07/01 07:15:38;;;;;;;;;;;;;;;;;;5052368;28;5050;-63
2023/07/01 07:18:06;;;;;;;;;;;;;;;;;;5051708;28;4637;-62
2023/07/01 07:20:31;;;;;;;;;;;;;;;;;;5051253;28;5088;-64
2023/07/01 07:22:56;;;;;;;;;;;;;;;;;;5051853;28;1285;-64
2023/07/01 07:25:22;;;;;;;;;;;;;;;;;;5047545;28;4882;-64
2023/07/01 07:27:47;;;;;;;;;;;;;;;;;;5049833;28;4472;-63
2023/07/01 07:30:12;;;;;;;;;;;;;;;;;;5043005;28;5084;-64
2023/07/01 07:32:38;;;;;;;;;;;;;;;;;;5050750;28;4509;-64
2023/07/01 07:35:03;;;;;;;;;;;;;;;;;;5051284;28;5964;-64
2023/07/01 07:37:28;;;;;;;;;;;;;;;;;;5048467;28;3439;-64
2023/07/01 07:39:55;;;;;;;;;;;;;;;;;;5040053;28;5030;-64
2023/07/01 07:42:21;;;;;;;;;;;;;;;;;;5050787;28;4973;-64
2023/07/01 07:44:46;;;;;;;;;;;;;;;;;;5045241;28;4995;-64
2023/07/01 07:47:11;;;;;;;;;;;;;;;;;;5050805;28;4517;-64
2023/07/01 07:49:36;;;;;;;;;;;;;;;;;;5048178;28;3529;-65
2023/07/01 07:52:02;;;;;;;;;;;;;;;;;;5047208;28;5082;-62
2023/07/01 07:54:28;;;;;;;;;;;;;;;;;;5042840;28;5310;-64
2023/07/01 07:56:58;;;;;;;;;;;;;;;;;;5050153;28;5068;-61
2023/07/01 07:59:24;;;;;;;;;;;;;;;;;;5053263;28;5075;-61
2023/07/01 08:01:49;;;;;;;;;;;;;;;;;;5048285;28;3355;-61
2023/07/01 08:04:15;;;;;;;;;;;;;;;;;;5049031;28;4971;-64
2023/07/01 08:06:40;;;;;;;;;;;;;;;;;;5046815;28;5265;-61
2023/07/01 08:09:06;;;;;;;;;;;;;;;;;;5050153;28;5005;-63
2023/07/01 08:11:31;;;;;;;;;;;;;;;;;;5046684;28;4985;-61
2023/07/01 08:13:56;;;;;;;;;;;;;;;;;;5048883;28;3246;-61
2023/07/01 08:16:22;;;;;;;;;;;;;;;;;;5055664;28;4406;-60
2023/07/01 08:18:47;;;;;;;;;;;;;;;;;;5048044;28;5002;-60
2023/07/01 08:21:13;;;;;;;;;;;;;;;;;;5047853;28;4499;-60
2023/07/01 08:23:38;;;;;;;;;;;;;;;;;;5048537;28;5158;-60
2023/07/01 08:26:03;;;;;;;;;;;;;;;;;;5047448;28;4923;-62
2023/07/01 08:28:31;;;;;;;;;;;;;;;;;;5038826;28;3343;-61
2023/07/01 08:30:57;;;;;;;;;;;;;;;;;;5043366;28;4682;-58
2023/07/01 08:33:22;;;;;;;;;;;;;;;;;;5037335;28;5070;-57
2023/07/01 08:35:48;;;;;;;;;;;;;;;;;;5045400;28;4567;-52
2023/07/01 08:38:14;;;;;;;;;;;;;;;;;;5047643;28;5044;-58
2023/07/01 08:40:40;;;;;;;;;;;;;;;;;;5047263;28;3283;-58
2023/07/01 08:43:05;;;;;;;;;;;;;;;;;;5042197;28;5101;-61
2023/07/01 08:45:31;;;;;;;;;;;;;;;;;;5048966;28;5038;-55
2023/07/01 08:47:59;;;;;;;;;;;;;;;;;;5049367;28;4872;-56
2023/07/01 08:50:25;;;;;;;;;;;;;;;;;;5042925;28;5096;-59
2023/07/01 08:52:52;;;;;;;;;;;;;;;;;;5045376;28;3303;-59
2023/07/01 08:55:17;;;;;;;;;;;;;;;;;;5044744;28;4942;-60
2023/07/01 08:57:43;;;;;;;;;;;;;;;;;;5044945;28;4977;-57
2023/07/01 09:00:09;;;;;;;;;;;;;;;;;;5042633;28;4788;-54
2023/07/01 09:02:34;;;;;;;;;;;;;;;;;;5042870;28;4765;-52
2023/07/01 09:05:00;;;;;;;;;;;;;;;;;;5057538;28;3552;-55
2023/07/01 09:07:25;;;;;;;;;;;;;;;;;;5060912;28;4611;-54
2023/07/01 09:09:50;;;;;;;;;;;;;;;;;;5044027;28;5018;-54
2023/07/01 09:12:15;;;;;;;;;;;;;;;;;;5047421;28;4878;-57
2023/07/01 09:14:59;;;;;;;;;;;;;;;;;;5045582;28;5019;-56
2023/07/01 09:17:31;;;;;;;;;;;;;;;;;;5044820;28;4537;-53
2023/07/01 09:20:04;;;;;;;;;;;;;;;;;;5045772;28;1227;-56
2023/07/01 09:22:30;;;;;;;;;;;;;;;;;;5047430;28;5088;-57
2023/07/01 09:24:55;;;;;;;;;;;;;;;;;;5024065;28;4714;-58
2023/07/01 09:27:21;;;;;;;;;;;;;;;;;;5040247;28;4649;-55
2023/07/01 09:29:46;;;;;;;;;;;;;;;;;;5043342;28;5188;-57
2023/07/01 09:32:11;;;;;;;;;;;;;;;;;;5043348;28;4526;-57
2023/07/01 09:34:55;;;;;;;;;;;;;;;;;;5059561;28;5058;-57
2023/07/01 09:37:21;;;;;;;;;;;;;;;;;;5042846;28;4467;-54
2023/07/01 09:39:46;;;;;;;;;;;;;;;;;;5025350;28;4634;-57
2023/07/01 09:42:12;;;;;;;;;;;;;;;;;;5044903;28;4701;-56
2023/07/01 09:44:38;;;;;;;;;;;;;;;;;;5045028;28;4947;-57
2023/07/01 09:47:04;;;;;;;;;;;;;;;;;;5057395;28;4539;-56
2023/07/01 09:49:35;;;;;;;;;;;;;;;;;;5045869;28;3155;-57
2023/07/01 09:52:00;;;;;;;;;;;;;;;;;;5046028;28;4890;-57
2023/07/01 09:54:26;;;;;;;;;;;;;;;;;;5047021;28;4503;-57
2023/07/01 09:56:52;;;;;;;;;;;;;;;;;;5046217;28;5024;-57
2023/07/01 09:59:18;;;;;;;;;;;;;;;;;;5050468;28;4854;-53
2023/07/01 10:01:43;;;;;;;;;;;;;;;;;;5046826;28;3216;-53
2023/07/01 10:04:09;;;;;;;;;;;;;;;;;;5042849;28;5500;-57
2023/07/01 10:06:34;;;;;;;;;;;;;;;;;;5042092;28;4618;-53
2023/07/01 10:09:00;;;;;;;;;;;;;;;;;;5046663;28;5192;-56
2023/07/01 10:11:25;;;;;;;;;;;;;;;;;;5046146;28;4604;-55
2023/07/01 10:13:51;;;;;;;;;;;;;;;;;;5057139;28;3233;-54
2023/07/01 10:16:17;;;;;;;;;;;;;;;;;;5045295;28;5000;-57
2023/07/01 10:18:42;;;;;;;;;;;;;;;;;;5040726;28;5030;-57
2023/07/01 10:21:19;;;;;;;;;;;;;;;;;;5045299;28;4818;-57
2023/07/01 10:23:47;;;;;;;;;;;;;;;;;;5044498;28;5064;-55
2023/07/01 10:26:31;;;;;;;;;;;;;;;;;;5043475;28;5034;-52
2023/07/01 10:28:56;;;;;;;;;;;;;;;;;;5045933;28;3091;-57
2023/07/01 10:31:22;;;;;;;;;;;;;;;;;;5044177;28;5008;-53
2023/07/01 10:33:47;;;;;;;;;;;;;;;;;;5045920;28;5239;-54
2023/07/01 10:36:18;;;;;;;;;;;;;;;;;;5030484;28;5130;-58
2023/07/01 10:38:43;;;;;;;;;;;;;;;;;;5049046;28;5066;-56
2023/07/01 10:41:09;;;;;;;;;;;;;;;;;;5041338;28;4663;-58
2023/07/01 10:43:35;;;;;;;;;;;;;;;;;;5046007;28;1172;-56
2023/07/01 10:46:07;;;;;;;;;;;;;;;;;;5041420;28;5036;-56
2023/07/01 10:48:33;;;;;;;;;;;;;;;;;;5042630;28;6300;-55
2023/07/01 10:51:05;;;;;;;;;;;;;;;;;;5044157;28;5038;-54
2023/07/01 10:53:30;;;;;;;;;;;;;;;;;;5041804;28;4681;-54
2023/07/01 10:56:12;;;;;;;;;;;;;;;;;;5042134;28;3374;-55
2023/07/01 10:58:37;;;;;;;;;;;;;;;;;;5056761;28;5399;-56
2023/07/01 11:01:03;;;;;;;;;;;;;;;;;;5044154;28;5021;-54
2023/07/01 11:03:35;;;;;;;;;;;;;;;;;;5061271;28;5038;-57
2023/07/01 11:06:00;;;;;;;;;;;;;;;;;;5045054;28;5235;-60
2023/07/01 11:08:26;;;;;;;;;;;;;;;;;;5044299;28;4668;-56
2023/07/01 11:10:51;;;;;;;;;;;;;;;;;;5042781;28;3453;-56
2023/07/01 11:13:19;;;;;;;;;;;;;;;;;;5041507;28;5104;-56
2023/07/01 11:16:03;;;;;;;;;;;;;;;;;;5040882;28;4526;-63
2023/07/01 11:18:41;;;;;;;;;;;;;;;;;;5041720;28;4904;-60
2023/07/01 11:21:08;;;;;;;;;;;;;;;;;;5038336;28;4841;-59
2023/07/01 11:23:33;;;;;;;;;;;;;;;;;;5039616;28;4724;-52
2023/07/01 11:25:58;;;;;;;;;;;;;;;;;;5040810;28;3334;-57
2023/07/01 11:28:36;;;;;;;;;;;;;;;;;;5054502;28;4943;-54
2023/07/01 11:31:15;;;;;;;;;;;;;;;;;;5043635;28;4998;-58
2023/07/01 11:33:47;;;;;;;;;;;;;;;;;;5044691;28;5619;-53
2023/07/01 11:36:14;;;;;;;;;;;;;;;;;;5042136;28;5237;-57
2023/07/01 11:38:39;;;;;;;;;;;;;;;;;;5044139;28;5121;-58
2023/07/01 11:41:04;;;;;;;;;;;;;;;;;;5044616;28;4524;-60
2023/07/01 11:43:29;;;;;;;;;;;;;;;;;;5043967;28;3342;-57
2023/07/01 11:45:55;;;;;;;;;;;;;;;;;;5048222;28;5023;-58
2023/07/01 11:48:30;;;;;;;;;;;;;;;;;;5049246;28;4443;-63
2023/07/01 11:50:56;;;;;;;;;;;;;;;;;;5060349;28;5189;-60
2023/07/01 11:53:21;;;;;;;;;;;;;;;;;;5043901;28;5234;-60
2023/07/01 11:55:46;;;;;;;;;;;;;;;;;;5042792;28;1211;-62
2023/07/01 11:58:25;;;;;;;;;;;;;;;;;;5044679;28;4477;-60
2023/07/01 12:00:50;;;;;;;;;;;;;;;;;;5042918;28;5121;-59
2023/07/01 12:03:15;;;;;;;;;;;;;;;;;;5046119;28;5679;-53
2023/07/01 12:05:44;;;;;;;;;;;;;;;;;;5043787;28;5121;-56
2023/07/01 12:08:09;;;;;;;;;;;;;;;;;;5061268;28;5099;-53
2023/07/01 12:10:35;;;;;;;;;;;;;;;;;;5045602;28;3361;-55
2023/07/01 12:13:00;;;;;;;;;;;;;;;;;;5063600;28;5113;-57
2023/07/01 12:15:26;;;;;;;;;;;;;;;;;;5046444;28;5003;-58
2023/07/01 12:17:53;;;;;;;;;;;;;;;;;;5047183;28;5007;-54
2023/07/01 12:20:20;;;;;;;;;;;;;;;;;;5025936;28;4487;-48
2023/07/01 12:22:45;;;;;;;;;;;;;;;;;;5068551;28;3353;-51
2023/07/01 12:25:10;;;;;;;;;;;;;;;;;;5046198;28;5030;-48
2023/07/01 12:27:35;;;;;;;;;;;;;;;;;;5040329;28;4926;-51
2023/07/01 12:30:02;;;;;;;;;;;;;;;;;;5060833;28;4514;-50
2023/07/01 12:32:27;;;;;;;;;;;;;;;;;;5077424;28;4810;-59
2023/07/01 12:34:52;;;;;;;;;;;;;;;;;;5044555;28;4950;-58
2023/07/01 12:37:17;;;;;;;;;;;;;;;;;;5055126;28;4879;-58
2023/07/01 12:39:44;;;;;;;;;;;;;;;;;;5068143;28;4949;-58
2023/07/01 12:42:10;;;;;;;;;;;;;;;;;;5047555;28;5083;-57
2023/07/01 12:44:35;;;;;;;;;;;;;;;;;;5046373;28;4997;-55
2023/07/01 12:47:00;;;;;;;;;;;;;;;;;;5040481;28;3506;-53
2023/07/01 12:49:27;;;;;;;;;;;;;;;;;;5044993;28;5041;-48
2023/07/01 12:51:52;;;;;;;;;;;;;;;;;;5045414;28;5005;-49
2023/07/01 12:54:17;;;;;;;;;;;;;;;;;;5046269;28;5121;-50
2023/07/01 12:56:42;;;;;;;;;;;;;;;;;;5048096;28;5161;-48
2023/07/01 12:59:08;;;;;;;;;;;;;;;;;;5045138;28;5022;-51
2023/07/01 13:01:33;;;;;;;;;;;;;;;;;;5044769;28;1315;-49
2023/07/01 13:03:58;;;;;;;;;;;;;;;;;;5046962;28;4952;-48
2023/07/01 13:06:30;;;;;;;;;;;;;;;;;;5048466;28;5131;-57
2023/07/01 13:08:59;;;;;;;;;;;;;;;;;;5043035;28;5109;-55
2023/07/01 13:11:25;;;;;;;;;;;;;;;;;;5048910;28;5123;-52
2023/07/01 13:13:51;;;;;;;;;;;;;;;;;;5049869;28;1938;-50
2023/07/01 13:16:22;;;;;;;;;;;;;;;;;;5043983;28;4915;-58
2023/07/01 13:18:47;;;;;;;;;;;;;;;;;;5045912;28;4988;-51
2023/07/01 13:21:12;;;;;;;;;;;;;;;;;;5048583;28;4963;-57
2023/07/01 13:23:38;;;;;;;;;;;;;;;;;;5048497;28;4508;-56
2023/07/01 13:26:03;;;;;;;;;;;;;;;;;;5064520;28;5220;-59
2023/07/01 13:28:28;;;;;;;;;;;;;;;;;;5047212;28;1146;-56
2023/07/01 13:30:53;;;;;;;;;;;;;;;;;;5038372;28;5290;-51
2023/07/01 13:33:23;;;;;;;;;;;;;;;;;;5048614;28;5064;-50
2023/07/01 13:35:48;;;;;;;;;;;;;;;;;;5045119;28;5002;-52
2023/07/01 13:38:14;;;;;;;;;;;;;;;;;;5053467;28;5206;-52
2023/07/01 13:40:41;;;;;;;;;;;;;;;;;;5030355;28;3368;-48
2023/07/01 13:43:07;;;;;;;;;;;;;;;;;;5062926;28;5030;-53
2023/07/01 13:45:33;;;;;;;;;;;;;;;;;;5061111;28;4604;-51
2023/07/01 13:47:58;;;;;;;;;;;;;;;;;;5048326;28;4901;-50
2023/07/01 13:50:24;;;;;;;;;;;;;;;;;;5046938;28;4996;-52
2023/07/01 13:52:50;;;;;;;;;;;;;;;;;;5048985;28;1160;-53
2023/07/01 13:55:19;;;;;;;;;;;;;;;;;;5048424;28;4736;-48
2023/07/01 13:57:48;;;;;;;;;;;;;;;;;;5048356;28;4974;-56
2023/07/01 14:00:28;;;;;;;;;;;;;;;;;;5043851;28;5199;-48
2023/07/01 14:02:53;;;;;;;;;;;;;;;;;;5062982;28;4712;-50
2023/07/01 14:05:21;;;;;;;;;;;;;;;;;;5047435;28;4512;-48
2023/07/01 14:07:46;;;;;;;;;;;;;;;;;;5048489;28;1105;-47
2023/07/01 14:10:17;;;;;;;;;;;;;;;;;;5048423;28;4839;-58
2023/07/01 14:12:42;;;;;;;;;;;;;;;;;;5060993;28;5059;-48
2023/07/01 14:15:08;;;;;;;;;;;;;;;;;;5063642;28;5099;-50
2023/07/01 14:17:33;;;;;;;;;;;;;;;;;;5062898;28;5366;-52
2023/07/01 14:19:59;;;;;;;;;;;;;;;;;;5063910;28;1191;-52
2023/07/01 14:22:24;;;;;;;;;;;;;;;;;;5047979;28;4522;-53
2023/07/01 14:24:51;;;;;;;;;;;;;;;;;;5063362;28;5098;-56
2023/07/01 14:27:27;;;;;;;;;;;;;;;;;;5033620;28;4999;-55
2023/07/01 14:29:52;;;;;;;;;;;;;;;;;;5045244;28;5020;-53
2023/07/01 14:32:18;;;;;;;;;;;;;;;;;;5024363;28;5047;-55
2023/07/01 14:34:43;;;;;;;;;;;;;;;;;;5063260;28;5019;-53
2023/07/01 14:37:10;;;;;;;;;;;;;;;;;;5047711;28;4459;-53
2023/07/01 14:39:47;;;;;;;;;;;;;;;;;;5052153;28;4939;-51
2023/07/01 14:42:12;;;;;;;;;;;;;;;;;;5036310;28;4982;-52
2023/07/01 14:44:38;;;;;;;;;;;;;;;;;;5047598;28;4472;-49
2023/07/01 14:47:03;;;;;;;;;;;;;;;;;;5047985;28;5258;-51
2023/07/01 14:49:28;;;;;;;;;;;;;;;;;;5048583;28;1079;-55
2023/07/01 14:51:54;;;;;;;;;;;;;;;;;;5047628;28;5032;-52
2023/07/01 14:54:19;;;;;;;;;;;;;;;;;;5045597;28;5152;-52
2023/07/01 14:56:46;;;;;;;;;;;;;;;;;;5039378;28;4811;-56
2023/07/01 14:59:11;;;;;;;;;;;;;;;;;;5047143;28;4496;-52
2023/07/01 15:01:36;;;;;;;;;;;;;;;;;;5046604;28;3258;-55
2023/07/01 15:04:02;;;;;;;;;;;;;;;;;;5046745;28;4494;-51
2023/07/01 15:06:27;;;;;;;;;;;;;;;;;;5045246;28;4871;-49
2023/07/01 15:08:52;;;;;;;;;;;;;;;;;;5045151;28;5063;-52
2023/07/01 15:11:18;;;;;;;;;;;;;;;;;;5044426;28;4926;-51
2023/07/01 15:13:44;;;;;;;;;;;;;;;;;;5047225;28;1967;-49
2023/07/01 15:16:09;;;;;;;;;;;;;;;;;;5046910;28;5074;-54
2023/07/01 15:18:35;;;;;;;;;;;;;;;;;;5050470;28;5303;-52
2023/07/01 15:21:00;;;;;;;;;;;;;;;;;;5051692;28;4558;-48
2023/07/01 15:23:25;;;;;;;;;;;;;;;;;;5043250;28;5078;-52
2023/07/01 15:25:51;;;;;;;;;;;;;;;;;;5050700;28;1277;-54
2023/07/01 15:28:16;;;;;;;;;;;;;;;;;;5049814;28;4417;-58
2023/07/01 15:30:42;;;;;;;;;;;;;;;;;;5066968;28;5066;-52
2023/07/01 15:33:07;;;;;;;;;;;;;;;;;;5051328;28;4510;-52
2023/07/01 15:35:32;;;;;;;;;;;;;;;;;;5049052;28;5279;-55
2023/07/01 15:37:58;;;;;;;;;;;;;;;;;;5067129;28;1392;-53
2023/07/01 15:40:23;;;;;;;;;;;;;;;;;;5051477;28;4949;-52
2023/07/01 15:42:49;;;;;;;;;;;;;;;;;;5051309;28;5087;-54
2023/07/01 15:45:15;;;;;;;;;;;;;;;;;;5051190;28;4689;-55
2023/07/01 15:47:40;;;;;;;;;;;;;;;;;;5051656;28;4481;-52
2023/07/01 15:50:06;;;;;;;;;;;;;;;;;;5045789;28;5052;-55
2023/07/01 15:52:31;;;;;;;;;;;;;;;;;;5051896;28;1233;-56
2023/07/01 15:54:56;;;;;;;;;;;;;;;;;;5051497;28;4914;-51
2023/07/01 15:57:21;;;;;;;;;;;;;;;;;;5051429;28;4721;-54
2023/07/01 15:59:47;;;;;;;;;;;;;;;;;;5051014;28;5108;-55
2023/07/01 16:02:12;;;;;;;;;;;;;;;;;;5050884;28;4994;-52
2023/07/01 16:04:38;;;;;;;;;;;;;;;;;;5035395;28;1207;-52
2023/07/01 16:07:04;;;;;;;;;;;;;;;;;;5046231;28;5232;-52
2023/07/01 16:09:41;;;;;;;;;;;;;;;;;;5050623;28;4848;-53
2023/07/01 16:12:07;;;;;;;;;;;;;;;;;;5050803;28;5169;-55
2023/07/01 16:14:32;;;;;;;;;;;;;;;;;;5050813;28;5091;-54
2023/07/01 16:16:58;;;;;;;;;;;;;;;;;;5064889;28;1176;-54
2023/07/01 16:19:23;;;;;;;;;;;;;;;;;;5042922;28;5085;-53
2023/07/01 16:21:49;;;;;;;;;;;;;;;;;;5050892;28;5075;-50
2023/07/01 16:24:33;;;;;;;;;;;;;;;;;;5050617;28;5028;-56
2023/07/01 16:26:58;;;;;;;;;;;;;;;;;;5044692;28;4467;-51
2023/07/01 16:29:23;;;;;;;;;;;;;;;;;;5049130;28;4609;-49
2023/07/01 16:31:49;;;;;;;;;;;;;;;;;;5065271;28;1381;-49
2023/07/01 16:34:14;;;;;;;;;;;;;;;;;;5064726;28;5056;-55
2023/07/01 16:36:40;;;;;;;;;;;;;;;;;;5032540;28;4466;-52
2023/07/01 16:39:09;;;;;;;;;;;;;;;;;;5065575;28;4984;-53
2023/07/01 16:41:34;;;;;;;;;;;;;;;;;;5033717;28;5023;-51
2023/07/01 16:44:00;;;;;;;;;;;;;;;;;;5066475;28;1113;-50
2023/07/01 16:46:29;;;;;;;;;;;;;;;;;;5047112;28;5007;-54
2023/07/01 16:48:56;;;;;;;;;;;;;;;;;;5065191;28;4519;-53
2023/07/01 16:51:21;;;;;;;;;;;;;;;;;;5032355;28;4614;-53
2023/07/01 16:53:50;;;;;;;;;;;;;;;;;;5065265;28;5078;-52
2023/07/01 16:56:16;;;;;;;;;;;;;;;;;;5032025;28;4968;-54